createdAt,value
2023-08-28T00:01:19.540Z,16.17
2023-08-28T00:04:10.536Z,19.02
2023-08-28T00:06:59.442Z,15.38
2023-08-28T00:09:48.444Z,16.42
2023-08-28T00:12:41.993Z,16.10
2023-08-28T00:15:30.868Z,20.27
2023-08-28T00:18:20.341Z,16.55
2023-08-28T00:21:10.891Z,16.52
2023-08-28T00:23:59.927Z,17.30
2023-08-28T00:26:49.850Z,18.27
2023-08-28T00:29:38.873Z,16.33
2023-08-28T00:32:28.778Z,17.10
2023-08-28T00:35:18.148Z,18.40
2023-08-28T00:38:08.539Z,15.70
2023-08-28T00:40:57.581Z,17.90
2023-08-28T00:43:46.518Z,16.15
2023-08-28T00:46:36.340Z,18.90
2023-08-28T00:49:25.765Z,16.88
2023-08-28T00:52:15.201Z,16.10
2023-08-28T00:55:06.120Z,17.05
2023-08-28T00:57:55.581Z,15.00
2023-08-28T01:00:44.899Z,21.83
2023-08-28T01:03:34.365Z,21.15
2023-08-28T01:06:32.433Z,17.85
2023-08-28T01:09:42.329Z,18.40
2023-08-28T01:12:41.243Z,18.15
2023-08-28T01:15:32.649Z,19.65
2023-08-28T01:18:22.264Z,21.42
2023-08-28T01:21:12.142Z,22.20
2023-08-28T01:24:06.389Z,14.13
2023-08-28T01:26:56.796Z,14.55
2023-08-28T01:29:45.947Z,8.73
2023-08-28T01:32:35.592Z,8.68
2023-08-28T01:35:27.656Z,7.07
2023-08-28T01:38:26.805Z,5.63
2023-08-28T01:41:20.008Z,7.00
2023-08-28T01:44:11.223Z,7.25
2023-08-28T01:47:01.121Z,4.72
2023-08-28T01:49:50.000Z,7.05
2023-08-28T01:52:39.499Z,4.75
2023-08-28T01:56:06.031Z,5.38
2023-08-28T01:58:57.275Z,4.40
2023-08-28T02:01:47.914Z,4.55
2023-08-28T02:04:37.291Z,5.38
2023-08-28T02:07:26.323Z,4.00
2023-08-28T02:10:15.289Z,4.20
2023-08-28T02:13:05.470Z,6.70
2023-08-28T02:15:54.630Z,3.47
2023-08-28T02:18:44.778Z,7.20
2023-08-28T02:21:33.747Z,4.45
2023-08-28T02:24:22.784Z,4.47
2023-08-28T02:27:11.825Z,7.10
2023-08-28T02:30:01.160Z,4.68
2023-08-28T02:32:50.237Z,3.80
2023-08-28T02:35:41.207Z,5.07
2023-08-28T02:38:30.125Z,4.88
2023-08-28T02:41:19.006Z,3.75
2023-08-28T02:44:08.474Z,4.32
2023-08-28T02:46:57.515Z,5.38
2023-08-28T02:49:46.317Z,4.45
2023-08-28T02:52:36.670Z,6.50
2023-08-28T02:55:25.772Z,5.00
2023-08-28T02:58:14.982Z,4.93
2023-08-28T03:01:04.073Z,4.78
2023-08-28T03:03:53.298Z,4.57
2023-08-28T03:06:43.057Z,5.65
2023-08-28T03:09:34.995Z,4.55
2023-08-28T03:12:23.952Z,5.38
2023-08-28T03:15:12.864Z,7.25
2023-08-28T03:18:02.122Z,5.93
2023-08-28T03:20:51.178Z,4.85
2023-08-28T03:23:40.513Z,5.38
2023-08-28T03:26:31.960Z,5.35
2023-08-28T03:29:21.204Z,6.43
2023-08-28T03:32:10.113Z,7.05
2023-08-28T03:34:59.010Z,7.25
2023-08-28T03:37:47.739Z,6.53
2023-08-28T03:40:37.669Z,7.43
2023-08-28T03:43:28.444Z,8.48
2023-08-28T03:46:17.440Z,6.30
2023-08-28T03:49:06.449Z,8.93
2023-08-28T03:51:56.188Z,6.32
2023-08-28T03:54:45.185Z,7.07
2023-08-28T03:57:36.360Z,6.07
2023-08-28T04:00:27.605Z,8.75
2023-08-28T04:03:17.094Z,6.57
2023-08-28T04:06:05.882Z,6.25
2023-08-28T04:08:55.040Z,6.53
2023-08-28T04:11:44.624Z,7.68
2023-08-28T04:14:33.726Z,6.55
2023-08-28T04:17:24.502Z,6.72
2023-08-28T04:20:15.662Z,9.68
2023-08-28T04:23:05.230Z,6.75
2023-08-28T04:25:54.632Z,6.88
2023-08-28T04:28:43.604Z,6.07
2023-08-28T04:31:32.689Z,7.35
2023-08-28T04:34:23.512Z,9.43
2023-08-28T04:37:12.391Z,7.22
2023-08-28T04:40:01.998Z,6.28
2023-08-28T04:42:52.869Z,7.53
2023-08-28T04:45:45.760Z,9.98
2023-08-28T04:48:34.967Z,6.50
2023-08-28T04:51:26.166Z,7.03
2023-08-28T04:54:15.246Z,9.10
2023-08-28T04:57:04.788Z,7.78
2023-08-28T04:59:53.698Z,8.05
2023-08-28T05:02:46.264Z,5.70
2023-08-28T05:05:35.382Z,5.65
2023-08-28T05:08:26.527Z,6.13
2023-08-28T05:11:15.481Z,8.38
2023-08-28T05:14:05.030Z,6.45
2023-08-28T05:16:54.165Z,5.00
2023-08-28T05:19:43.307Z,5.68
2023-08-28T05:22:32.618Z,4.65
2023-08-28T05:25:23.078Z,5.38
2023-08-28T05:28:12.474Z,5.38
2023-08-28T05:31:01.657Z,5.10
2023-08-28T05:33:50.808Z,5.53
2023-08-28T05:36:39.965Z,4.95
2023-08-28T05:39:28.884Z,5.05
2023-08-28T05:42:19.783Z,5.40
2023-08-28T05:45:10.851Z,4.85
2023-08-28T05:47:59.826Z,6.93
2023-08-28T05:50:52.284Z,7.72
2023-08-28T05:53:44.548Z,4.93
2023-08-28T05:56:33.964Z,5.63
2023-08-28T05:59:24.662Z,4.95
2023-08-28T06:02:14.332Z,6.35
2023-08-28T06:05:03.745Z,4.40
2023-08-28T06:07:52.647Z,4.63
2023-08-28T06:10:43.399Z,4.28
2023-08-28T06:13:34.255Z,5.32
2023-08-28T06:16:24.814Z,4.25
2023-08-28T06:19:13.725Z,5.72
2023-08-28T06:22:06.154Z,5.70
2023-08-28T06:24:55.050Z,4.32
2023-08-28T06:27:44.568Z,4.72
2023-08-28T06:30:34.369Z,3.83
2023-08-28T06:33:25.142Z,4.63
2023-08-28T06:36:14.173Z,5.00
2023-08-28T06:39:04.215Z,7.22
2023-08-28T06:41:53.168Z,6.85
2023-08-28T06:44:43.245Z,4.22
2023-08-28T06:47:32.768Z,4.22
2023-08-28T06:50:23.287Z,5.63
2023-08-28T06:53:12.253Z,3.50
2023-08-28T06:56:01.304Z,3.88
2023-08-28T06:58:50.262Z,4.05
2023-08-28T07:01:42.362Z,3.78
2023-08-28T07:04:31.236Z,3.03
2023-08-28T07:07:21.810Z,4.32
2023-08-28T07:10:11.030Z,3.58
2023-08-28T07:13:00.072Z,4.18
2023-08-28T07:15:58.823Z,8.38
2023-08-28T07:18:47.978Z,4.63
2023-08-28T07:21:36.911Z,4.63
2023-08-28T07:24:27.021Z,8.02
2023-08-28T07:27:15.897Z,5.15
2023-08-28T07:30:05.660Z,6.53
2023-08-28T07:32:54.777Z,4.90
2023-08-28T07:35:48.339Z,5.10
2023-08-28T07:38:37.923Z,8.15
2023-08-28T07:41:28.593Z,8.45
2023-08-28T07:44:17.716Z,5.65
2023-08-28T07:47:07.992Z,8.20
2023-08-28T07:49:57.110Z,7.38
2023-08-28T07:52:46.299Z,4.72
2023-08-28T07:55:35.487Z,7.07
2023-08-28T07:58:25.829Z,6.55
2023-08-28T08:01:14.669Z,5.20
2023-08-28T08:04:04.250Z,5.38
2023-08-28T08:06:53.226Z,5.38
2023-08-28T08:09:42.590Z,7.70
2023-08-28T08:12:31.523Z,6.22
2023-08-28T08:15:22.333Z,6.88
2023-08-28T08:18:11.364Z,6.47
2023-08-28T08:21:00.578Z,6.43
2023-08-28T08:23:50.406Z,5.35
2023-08-28T08:26:39.651Z,5.80
2023-08-28T08:29:29.219Z,6.40
2023-08-28T08:32:20.116Z,7.10
2023-08-28T08:35:11.491Z,5.70
2023-08-28T08:38:01.629Z,8.55
2023-08-28T08:40:54.549Z,6.88
2023-08-28T08:43:43.939Z,7.63
2023-08-28T08:46:33.573Z,4.90
2023-08-28T08:49:28.528Z,5.05
2023-08-28T08:52:20.330Z,6.82
2023-08-28T08:55:19.007Z,5.43
2023-08-28T08:58:12.939Z,5.43
2023-08-28T09:01:04.116Z,7.20
2023-08-28T09:03:53.676Z,4.53
2023-08-28T09:06:44.812Z,5.28
2023-08-28T09:09:34.496Z,4.18
2023-08-28T09:12:23.771Z,4.40
2023-08-28T09:15:13.394Z,5.35
2023-08-28T09:18:04.242Z,4.07
2023-08-28T09:21:09.104Z,5.07
2023-08-28T09:24:01.268Z,12.45
2023-08-28T09:26:54.370Z,7.10
2023-08-28T09:29:43.400Z,4.20
2023-08-28T09:32:32.433Z,3.63
2023-08-28T09:35:22.743Z,4.82
2023-08-28T09:38:12.606Z,6.60
2023-08-28T09:41:04.651Z,4.15
2023-08-28T09:43:53.659Z,4.30
2023-08-28T09:46:44.536Z,4.72
2023-08-28T09:49:34.867Z,5.25
2023-08-28T09:52:27.428Z,6.25
2023-08-28T09:55:16.318Z,5.53
2023-08-28T09:58:12.430Z,4.88
2023-08-28T10:01:01.803Z,5.47
2023-08-28T10:03:51.708Z,4.13
2023-08-28T10:06:47.188Z,3.85
2023-08-28T10:09:36.944Z,4.95
2023-08-28T10:12:29.613Z,5.45
2023-08-28T10:15:21.105Z,4.15
2023-08-28T10:18:14.713Z,4.07
2023-08-28T10:21:04.264Z,5.60
2023-08-28T10:23:54.472Z,5.68
2023-08-28T10:26:45.319Z,3.30
2023-08-28T10:29:36.851Z,8.10
2023-08-28T10:32:28.064Z,4.93
2023-08-28T10:35:19.098Z,6.07
2023-08-28T10:38:08.682Z,3.97
2023-08-28T10:41:00.801Z,3.47
2023-08-28T10:43:51.486Z,4.75
2023-08-28T10:46:41.677Z,5.05
2023-08-28T10:49:32.564Z,3.85
2023-08-28T10:52:21.905Z,4.53
2023-08-28T10:55:12.383Z,6.20
2023-08-28T10:58:04.556Z,3.80
2023-08-28T11:01:13.096Z,3.63
2023-08-28T11:04:02.807Z,5.05
2023-08-28T11:06:53.287Z,4.43
2023-08-28T11:09:43.159Z,3.78
2023-08-28T11:12:51.424Z,4.90
2023-08-28T11:15:43.363Z,8.32
2023-08-28T11:18:32.990Z,10.40
2023-08-28T11:21:26.969Z,5.15
2023-08-28T11:24:26.853Z,4.30
2023-08-28T11:27:33.990Z,4.28
2023-08-28T11:30:24.422Z,5.40
2023-08-28T11:33:13.767Z,5.60
2023-08-28T11:36:03.047Z,4.07
2023-08-28T11:38:52.251Z,6.05
2023-08-28T11:41:45.034Z,8.32
2023-08-28T11:44:35.133Z,5.28
2023-08-28T11:47:27.771Z,5.22
2023-08-28T11:50:16.917Z,4.18
2023-08-28T11:53:06.392Z,4.35
2023-08-28T11:55:56.150Z,4.22
2023-08-28T11:58:47.443Z,3.92
2023-08-28T12:01:37.132Z,6.13
2023-08-28T12:04:26.418Z,7.10
2023-08-28T12:07:19.403Z,6.40
2023-08-28T12:10:09.528Z,6.97
2023-08-28T12:13:00.674Z,4.95
2023-08-28T12:15:51.201Z,4.95
2023-08-28T12:18:51.608Z,8.52
2023-08-28T12:21:43.481Z,5.38
2023-08-28T12:24:33.156Z,4.95
2023-08-28T12:27:28.796Z,7.25
2023-08-28T12:30:21.658Z,7.50
2023-08-28T12:33:12.175Z,9.00
2023-08-28T12:36:05.594Z,6.63
2023-08-28T12:38:55.409Z,7.30
2023-08-28T12:41:51.434Z,9.05
2023-08-28T12:44:42.581Z,5.97
2023-08-28T12:47:31.885Z,8.73
2023-08-28T12:50:24.443Z,14.13
2023-08-28T12:53:13.559Z,20.52
2023-08-28T12:56:03.007Z,15.65
2023-08-28T12:58:52.140Z,8.50
2023-08-28T13:01:44.171Z,7.85
2023-08-28T13:04:34.171Z,12.23
2023-08-28T13:07:24.688Z,7.80
2023-08-28T13:10:13.618Z,10.02
2023-08-28T13:13:02.783Z,12.32
2023-08-28T13:15:52.137Z,9.85
2023-08-28T13:18:41.351Z,8.48
2023-08-28T13:21:38.369Z,9.10
2023-08-28T13:24:37.912Z,11.25
2023-08-28T13:27:33.090Z,14.40
2023-08-28T13:30:22.387Z,9.13
2023-08-28T13:33:11.463Z,11.45
2023-08-28T13:36:00.465Z,8.65
2023-08-28T13:38:49.971Z,8.68
2023-08-28T13:41:41.497Z,12.27
2023-08-28T13:44:31.765Z,12.07
2023-08-28T13:47:20.959Z,10.30
2023-08-28T13:50:10.870Z,8.00
2023-08-28T13:52:59.944Z,11.20
2023-08-28T13:55:49.770Z,12.88
2023-08-28T13:58:43.309Z,9.98
2023-08-28T14:01:32.575Z,10.88
2023-08-28T14:04:21.573Z,9.88
2023-08-28T14:07:10.625Z,14.55
2023-08-28T14:09:59.548Z,11.57
2023-08-28T14:12:49.706Z,9.60
2023-08-28T14:15:40.232Z,10.60
2023-08-28T14:18:29.141Z,8.75
2023-08-28T14:21:18.401Z,10.23
2023-08-28T14:24:09.446Z,12.63
2023-08-28T14:26:58.474Z,12.57
2023-08-28T14:29:47.550Z,10.10
2023-08-28T14:32:38.113Z,9.93
2023-08-28T14:35:27.184Z,10.80
2023-08-28T14:38:16.257Z,9.55
2023-08-28T14:41:05.350Z,10.60
2023-08-28T14:43:54.317Z,11.13
2023-08-28T14:46:43.467Z,14.07
2023-08-28T14:49:33.997Z,9.02
2023-08-28T14:52:22.899Z,11.45
2023-08-28T14:55:11.769Z,13.60
2023-08-28T14:58:00.747Z,9.43
2023-08-28T15:00:55.167Z,10.65
2023-08-28T15:03:45.474Z,13.13
2023-08-28T15:06:35.999Z,9.90
2023-08-28T15:09:25.277Z,9.75
2023-08-28T15:12:15.017Z,12.13
2023-08-28T15:15:05.706Z,9.68
2023-08-28T15:17:54.877Z,8.82
2023-08-28T15:20:43.874Z,10.98
2023-08-28T15:23:34.168Z,11.10
2023-08-28T15:26:23.206Z,11.77
2023-08-28T15:29:12.100Z,11.32
2023-08-28T15:32:01.005Z,8.15
2023-08-28T15:34:50.091Z,8.93
2023-08-28T15:37:41.320Z,7.93
2023-08-28T15:40:31.638Z,9.23
2023-08-28T15:43:21.326Z,10.07
2023-08-28T15:46:10.174Z,8.57
2023-08-28T15:48:59.677Z,9.65
2023-08-28T15:51:48.487Z,8.63
2023-08-28T15:54:37.418Z,8.05
2023-08-28T15:57:30.598Z,8.13
2023-08-28T16:00:20.131Z,9.77
2023-08-28T16:03:09.323Z,12.85
2023-08-28T16:05:58.744Z,11.95
2023-08-28T16:08:48.114Z,12.05
2023-08-28T16:11:36.953Z,11.55
2023-08-28T16:14:27.503Z,9.90
2023-08-28T16:17:16.401Z,10.27
2023-08-28T16:20:06.391Z,11.40
2023-08-28T16:22:55.258Z,9.88
2023-08-28T16:25:45.118Z,10.13
2023-08-28T16:28:34.910Z,7.47
2023-08-28T16:31:25.299Z,6.90
2023-08-28T16:34:14.996Z,9.40
2023-08-28T16:37:04.269Z,8.88
2023-08-28T16:39:53.421Z,7.05
2023-08-28T16:42:44.944Z,8.13
2023-08-28T16:45:34.376Z,6.40
2023-08-28T16:48:25.268Z,6.97
2023-08-28T16:51:14.180Z,9.43
2023-08-28T16:54:03.571Z,8.48
2023-08-28T16:56:52.443Z,8.32
2023-08-28T16:59:42.356Z,7.25
2023-08-28T17:02:32.465Z,8.10
2023-08-28T17:05:23.498Z,6.88
2023-08-28T17:08:13.624Z,11.40
2023-08-28T17:11:02.617Z,8.38
2023-08-28T17:13:51.573Z,7.60
2023-08-28T17:16:42.574Z,8.77
2023-08-28T17:19:33.202Z,10.85
2023-08-28T17:22:24.062Z,10.18
2023-08-28T17:25:13.226Z,7.32
2023-08-28T17:28:02.188Z,8.90
2023-08-28T17:30:51.327Z,9.15
2023-08-28T17:33:41.258Z,9.20
2023-08-28T17:36:32.845Z,9.93
2023-08-28T17:39:27.821Z,10.10
2023-08-28T17:42:17.003Z,8.57
2023-08-28T17:45:06.553Z,7.53
2023-08-28T17:47:55.701Z,7.18
2023-08-28T17:50:46.738Z,7.50
2023-08-28T17:53:36.420Z,7.13
2023-08-28T17:56:27.036Z,7.28
2023-08-28T17:59:16.098Z,10.18
2023-08-28T18:02:05.544Z,6.80
2023-08-28T18:04:54.710Z,6.30
2023-08-28T18:07:43.918Z,7.45
2023-08-28T18:10:33.317Z,7.80
2023-08-28T18:13:23.719Z,7.55
2023-08-28T18:16:14.397Z,6.43
2023-08-28T18:19:04.158Z,6.80
2023-08-28T18:21:53.194Z,6.63
2023-08-28T18:24:45.010Z,6.95
2023-08-28T18:27:35.205Z,6.15
2023-08-28T18:30:28.702Z,6.85
2023-08-28T18:33:17.661Z,5.60
2023-08-28T18:36:07.049Z,5.85
2023-08-28T18:38:56.243Z,7.22
2023-08-28T18:41:48.042Z,6.85
2023-08-28T18:44:44.976Z,6.22
2023-08-28T18:47:35.743Z,7.13
2023-08-28T18:50:24.974Z,6.25
2023-08-28T18:53:14.124Z,10.45
2023-08-28T18:56:03.733Z,7.22
2023-08-28T18:58:53.526Z,7.63
2023-08-28T19:01:43.184Z,6.40
2023-08-28T19:04:34.100Z,5.88
2023-08-28T19:07:23.294Z,7.07
2023-08-28T19:10:12.636Z,7.22
2023-08-28T19:13:01.577Z,6.70
2023-08-28T19:15:50.877Z,5.05
2023-08-28T19:18:40.304Z,6.35
2023-08-28T19:21:30.725Z,5.57
2023-08-28T19:24:19.688Z,6.88
2023-08-28T19:27:08.514Z,6.93
2023-08-28T19:29:57.769Z,6.38
2023-08-28T19:32:48.196Z,5.47
2023-08-28T19:35:37.596Z,5.53
2023-08-28T19:38:28.146Z,7.45
2023-08-28T19:41:17.466Z,8.68
2023-08-28T19:44:06.581Z,8.23
2023-08-28T19:46:55.779Z,5.85
2023-08-28T19:49:44.787Z,7.85
2023-08-28T19:52:34.131Z,6.68
2023-08-28T19:55:24.968Z,8.35
2023-08-28T19:58:13.764Z,6.70
2023-08-28T20:01:04.834Z,8.75
2023-08-28T20:03:54.269Z,9.70
2023-08-28T20:06:43.346Z,9.45
2023-08-28T20:09:32.543Z,8.57
2023-08-28T20:12:22.776Z,16.25
2023-08-28T20:15:12.152Z,10.50
2023-08-28T20:18:01.342Z,9.15
2023-08-28T20:20:51.292Z,7.22
2023-08-28T20:23:40.847Z,9.65
2023-08-28T20:26:30.159Z,9.70
2023-08-28T20:29:20.592Z,7.78
2023-08-28T20:32:10.590Z,8.65
2023-08-28T20:34:59.922Z,10.75
2023-08-28T20:37:49.354Z,8.30
2023-08-28T20:40:40.278Z,12.05
2023-08-28T20:43:29.365Z,6.93
2023-08-28T20:46:21.664Z,9.52
2023-08-28T20:49:10.859Z,9.63
2023-08-28T20:51:59.818Z,9.93
2023-08-28T20:54:48.852Z,7.35
2023-08-28T20:57:38.115Z,6.95
2023-08-28T21:00:26.981Z,8.85
2023-08-28T21:03:17.424Z,8.05
2023-08-28T21:06:06.492Z,8.70
2023-08-28T21:08:55.347Z,8.63
2023-08-28T21:11:44.543Z,9.82
2023-08-28T21:14:33.798Z,8.25
2023-08-28T21:17:22.783Z,10.48
2023-08-28T21:20:14.092Z,10.80
2023-08-28T21:23:02.940Z,8.50
2023-08-28T21:25:51.931Z,7.47
2023-08-28T21:28:41.328Z,10.20
2023-08-28T21:31:30.597Z,11.40
2023-08-28T21:34:19.517Z,7.78
2023-08-28T21:37:09.932Z,8.40
2023-08-28T21:39:59.081Z,11.63
2023-08-28T21:42:48.316Z,8.07
2023-08-28T21:45:37.426Z,7.35
2023-08-28T21:48:27.213Z,9.30
2023-08-28T21:51:35.242Z,11.48
2023-08-28T21:54:48.122Z,7.82
2023-08-28T21:57:56.067Z,9.80
2023-08-28T22:01:03.871Z,9.80
2023-08-28T22:04:11.922Z,7.93
2023-08-28T22:07:19.773Z,7.70
2023-08-28T22:10:35.889Z,7.72
2023-08-28T22:13:45.995Z,9.15
2023-08-28T22:16:35.111Z,8.23
2023-08-28T22:19:24.213Z,8.88
2023-08-28T22:22:13.467Z,10.23
2023-08-28T22:25:02.664Z,5.82
2023-08-28T22:27:54.340Z,7.38
2023-08-28T22:30:43.783Z,7.35
2023-08-28T22:33:32.932Z,6.93
2023-08-28T22:36:22.081Z,10.02
2023-08-28T22:39:11.362Z,7.70
2023-08-28T22:42:00.341Z,8.00
2023-08-28T22:44:51.149Z,7.65
2023-08-28T22:47:40.199Z,9.35
2023-08-28T22:50:29.548Z,6.75
2023-08-28T22:53:18.470Z,6.18
2023-08-28T22:56:07.509Z,7.15
2023-08-28T22:58:56.284Z,7.85
2023-08-28T23:01:46.647Z,7.20
2023-08-28T23:04:37.557Z,7.72
2023-08-28T23:07:26.731Z,9.07
2023-08-28T23:10:15.760Z,7.88
2023-08-28T23:13:05.099Z,8.63
2023-08-28T23:15:54.681Z,8.55
2023-08-28T23:18:45.519Z,11.15
2023-08-28T23:21:34.753Z,8.52
2023-08-28T23:24:24.285Z,10.15
2023-08-28T23:27:13.244Z,6.80
2023-08-28T23:30:03.644Z,7.38
2023-08-28T23:32:53.472Z,9.02
2023-08-28T23:35:45.302Z,8.23
2023-08-28T23:38:34.959Z,6.70
2023-08-28T23:41:23.837Z,6.20
2023-08-28T23:44:12.966Z,6.88
2023-08-28T23:47:02.153Z,6.88
2023-08-28T23:49:51.182Z,11.02
2023-08-28T23:52:42.190Z,7.05
2023-08-28T23:55:31.579Z,6.10
2023-08-28T23:58:20.394Z,9.13
